Airfield :







YOU CAN JOIN US ON...

 
LOGIN :

Register | Disclaimer

   EN    FR    IT 

 









Legend :    VFR   Marginal VFR   IFR   Intensive IFR   Very Intensive IFR
Visi :
Ceiling :
>= 8 km
>= 3000ft
5 to 8 km
1000 to 3000 ft
1500m to 5 km
500 to 1000 ft
800 to 1500m
200 to 500 ft
< 800m
< 200 ft
Symbols :   Thunderstorms  Fog  Heavy snow  Heavy precipitations  Wind > 20 kt






- Airport Elevation : 29 ft
- IATA code : CUR


TNCC - Willemstad/Hato Int.

CURRENT METAR :
  • 150900Z 13009KT 9999 SCT018 27/23 Q1012 NOSIG

EXPIRED METARs :
  • 150800Z 13008KT 9999 SCT018 27/23 Q1012 NOSIG
  • 150700Z 12008KT 9999 NCD 28/23 Q1012 TEMPO 12020KT 5000 SHRA BKN014TCU

TAF TAF TNCC
Valid from the 15 at 06:00 until the 16 at 06:00 UTC


150515Z 1506/1606 10010KT 9999 SCT018
TEMPO 1506/1520 7000 -SHRA BKN014
PROB30
TEMPO 1508/1513 12020KT 5000 TSRA SCT012CB



MET'MAP, your aeronautical weather chart ! - Copyright ORBIFLY December 2007 - Disclaimer

ORBIFLY MET'MAP TEAM :

Programming & Development : Alexandra Zaïnal
Concept & Development : Baudouin d'Aumeries
Co-Development & Prog : Marc-Olivier Méhu
Technical & hardware support : Manuel Goepfert

Contact : metmap@orbifly.com




SOURCES & CREDITS :

   NOAA